Latest Coastal Weather Observations for Frederick Reef

IDQ60701

Issued at 11:35 pm EST Friday 31 October 2014 (issued every 10 minutes, with the page automatically refreshed every 10 minutes)

About coastal observations | Map of coastal stations | Coastal observations for QLD | Marine services | Other Formats
Station Details ID: 200701 Name: FREDERICK REEF Lat: -20.94 Lon: 154.40 Height: 4.9 m
Data from the previous 72 hours. | See also: Recent months for locations in Queensland
Date/Time
EST
Temp

°C
Wind Pressure Rain
since 9am
mm
Weather Cloud Vis
km
Sea
Height
m
Swell
Dir
 
Speed
knots
Gust
knots
hPa Trend Height
m
Period
s
Dir
31/11:30pm 23.6 E 0 3 1015.5 - - - - - - - - -
31/11:00pm 23.5 E 1 3 1015.6 - - - - - - - - -
31/10:30pm 23.4 E 1 3 1015.8 - - - - - - - - -
31/10:00pm 23.3 E 1 2 1015.6 - - - - - - - - -
31/09:30pm 23.4 E 1 3 1016.1 - - - - - - - - -
31/09:00pm 23.3 CALM 0 - 1015.9 - - - - - - - - -
31/08:30pm 23.4 CALM 0 2 1015.9 - - - - - - - - -
31/08:00pm 23.4 E 1 - 1015.4 - - - - - - - - -
31/07:30pm 23.3 E 1 4 1015.4 - - - - - - - - -
31/07:00pm 23.4 E 1 3 1015.1 - - - - - - - - -
31/06:30pm 23.3 E 1 4 1015.0 - - - - - - - - -
31/06:00pm 23.4 E 1 3 1014.6 - - - - - - - - -
31/05:30pm 23.4 E 13 15 1014.5 - - - - - - - - -
31/05:00pm 23.4 E 12 - 1014.1 - - - - - - - - -
31/04:30pm 23.6 E 13 15 1014.5 - - - - - - - - -
31/04:00pm 23.5 ESE 13 15 1014.0 - - - - - - - - -
31/03:30pm 23.4 ESE 13 15 1014.1 - - - - - - - - -
31/03:00pm 23.4 ESE 12 14 1013.7 - - - - - - - - -
31/02:30pm 23.4 ESE 12 14 1014.0 - - - - - - - - -
31/02:00pm 23.3 ESE 11 13 1014.0 - - - - - - - - -
31/01:30pm 23.4 E 11 13 1014.7 - - - - - - - - -
31/01:00pm 23.4 E 11 14 1014.7 - - - - - - - - -
31/12:30pm 23.3 E 12 15 1015.1 - - - - - - - - -
31/12:00pm 23.3 E 14 17 1014.9 - - - - - - - - -
31/11:30am 23.3 E 13 15 1015.5 - - - - - - - - -
31/11:00am 23.3 E 14 15 1015.5 - - - - - - - - -
31/10:30am 23.4 ENE 14 17 1016.0 - - - - - - - - -
31/10:00am 23.5 E 15 16 1016.0 - - - - - - - - -
31/09:30am 23.5 E 14 16 1016.6 - - - - - - - - -
31/09:00am 23.5 ENE 16 19 1016.2 - - - - - - - - -
31/08:30am 23.7 E 16 19 1016.3 - - - - - - - - -
31/08:00am 23.5 E 16 18 1016.0 - - - - - - - - -
31/07:30am 23.6 E 15 17 1016.0 - - - - - - - - -
31/07:00am 23.4 E 14 17 1015.7 - - - - - - - - -
31/06:30am 23.4 E 14 16 1015.9 - - - - - - - - -
31/06:00am 23.3 E 14 16 1015.8 - - - - - - - - -
31/05:30am 23.1 E 16 17 1015.3 - - - - - - - - -
31/05:00am 23.0 E 14 16 1014.8 - - - - - - - - -
31/04:30am 22.9 E 15 17 1014.8 - - - - - - - - -
31/04:21am 22.9 E 15 17 1014.6 - - - - - - - - -
31/04:00am 22.8 E 1 3 1014.1 - - - - - - - - -
31/03:30am 22.9 E 1 3 1014.3 - - - - - - - - -
31/03:00am 22.9 E 0 6 1014.0 - - - - - - - - -
31/02:30am 23.0 CALM 0 4 1014.0 - - - - - - - - -
31/02:00am 22.9 ENE 1 3 1013.6 - - - - - - - - -
31/01:30am 22.9 CALM 0 2 1014.4 - - - - - - - - -
31/01:00am 22.9 CALM 0 2 1014.2 - - - - - - - - -
31/12:30am 23.0 ENE 1 3 1014.7 - - - - - - - - -
31/12:00am 23.0 ENE 1 3 1014.9 - - - - - - - - -
 
Date/Time
EST
Temp

°C
Wind Pressure Rain
since 9am
mm
Weather Cloud Vis
km
Sea
Height
m
Swell
Dir
 
Speed
knots
Gust
knots
hPa Trend Height
m
Period
s
Dir
30/11:30pm 23.1 E 1 3 1015.2 - - - - - - - - -
30/11:00pm 23.2 E 1 2 1015.2 - - - - - - - - -
30/10:30pm 23.1 CALM 0 3 1015.6 - - - - - - - - -
30/10:00pm 23.2 E 1 2 1015.6 - - - - - - - - -
30/09:30pm 23.3 E 1 3 1015.6 - - - - - - - - -
30/09:00pm 23.3 E 1 3 1015.4 - - - - - - - - -
30/08:00pm 23.4 E 1 3 1015.3 - - - - - - - - -
30/07:30pm 23.5 E 1 3 1015.4 - - - - - - - - -
30/07:00pm 23.6 E 1 3 1015.3 - - - - - - - - -
30/06:30pm 23.6 ESE 1 3 1015.0 - - - - - - - - -
30/06:00pm 23.5 ESE 1 15 1014.5 - - - - - - - - -
30/05:30pm 23.5 ESE 13 15 1014.5 - - - - - - - - -
30/05:00pm 23.6 ESE 13 14 1014.0 - - - - - - - - -
30/04:30pm 23.6 ESE 13 14 1013.9 - - - - - - - - -
30/04:00pm 23.6 SE 12 14 1013.6 - - - - - - - - -
30/03:30pm 23.7 ESE 12 14 1013.8 - - - - - - - - -
30/03:00pm 23.6 ESE 12 14 1013.8 - - - - - - - - -
30/02:30pm 23.5 SE 12 13 1013.9 - - - - - - - - -
30/02:00pm 23.5 SE 12 13 1013.8 - - - - - - - - -
30/01:30pm 23.5 SE 11 12 1014.6 - - - - - - - - -
30/01:00pm 23.5 SE 11 13 1014.5 - - - - - - - - -
30/12:30pm 23.5 ESE 10 12 1015.1 - - - - - - - - -
30/12:00pm 23.5 ESE 11 13 1015.0 - - - - - - - - -
30/11:30am 23.5 ESE 10 12 1016.0 - - - - - - - - -
30/11:00am 23.5 ESE 10 11 1016.0 - - - - - - - - -
30/10:30am 23.5 ESE 10 11 1016.6 - - - - - - - - -
30/10:00am 23.4 ESE 10 11 1016.4 - - - - - - - - -
30/09:30am 23.6 E 10 12 1016.8 - - - - - - - - -
30/09:00am 23.6 E 10 11 1016.9 - - - - - - - - -
30/08:30am 23.6 E 11 12 1016.9 - - - - - - - - -
30/08:00am 23.5 E 10 11 1016.6 - - - - - - - - -
30/07:30am 23.7 E 10 12 1016.4 - - - - - - - - -
30/07:00am 23.7 E 10 12 1015.9 - - - - - - - - -
30/06:30am 23.5 ENE 11 12 1015.9 - - - - - - - - -
30/06:00am 23.4 E 11 11 1015.4 - - - - - - - - -
30/05:30am 23.1 E 10 11 1015.2 - - - - - - - - -
30/05:00am 23.0 E 10 11 1014.7 - - - - - - - - -
30/04:30am 23.0 E 10 12 1014.3 - - - - - - - - -
30/04:00am 22.9 CALM 0 2 1013.7 - - - - - - - - -
30/03:30am 23.0 CALM 0 2 1013.8 - - - - - - - - -
30/03:00am 23.0 CALM 0 2 1013.6 - - - - - - - - -
30/02:30am 23.0 CALM 0 2 1013.6 - - - - - - - - -
30/02:00am 23.1 CALM 0 4 1013.4 - - - - - - - - -
30/01:30am 23.1 ENE 1 3 1013.6 - - - - - - - - -
30/01:00am 23.1 CALM 0 2 1013.5 - - - - - - - - -
30/12:30am 23.2 CALM 0 2 1014.4 - - - - - - - - -
30/12:00am 23.2 CALM 0 3 1014.4 - - - - - - - - -
 
Date/Time
EST
Temp

°C
Wind Pressure Rain
since 9am
mm
Weather Cloud Vis
km
Sea
Height
m
Swell
Dir
 
Speed
knots
Gust
knots
hPa Trend Height
m
Period
s
Dir
29/11:30pm 23.3 CALM 0 2 1015.1 - - - - - - - - -
29/11:00pm 23.4 ENE 1 3 1014.9 - - - - - - - - -
29/10:30pm 23.5 ENE 1 13 1015.2 - - - - - - - - -
29/10:00pm 23.6 CALM 0 3 1015.2 - - - - - - - - -
29/09:30pm 23.7 CALM 0 2 1015.7 - - - - - - - - -
29/09:00pm 23.6 ENE 1 2 1015.3 - - - - - - - - -
29/08:30pm 23.8 CALM 0 2 1015.5 - - - - - - - - -
29/08:00pm 23.8 CALM 0 2 1015.2 - - - - - - - - -
29/07:00pm 23.8 CALM 0 2 1014.8 - - - - - - - - -
29/06:00pm 23.9 CALM 0 - 1014.5 - - - - - - - - -
29/05:30pm 24.0 E 7 8 1014.5 - - - - - - - - -
29/05:00pm 24.1 E 7 8 1014.1 - - - - - - - - -
29/04:30pm 24.1 E 7 8 1014.3 - - - - - - - - -
29/04:00pm 24.1 E 7 8 1014.0 - - - - - - - - -
29/03:00pm 24.2 E 7 - 1013.6 - - - - - - - - -
29/06:00am 24.0 CALM 0 - 1014.8 - - - - - - - - -

Other Formats:

Comma delimited format used in spreadsheet applications
http://www.bom.gov.au/fwo/IDQ60701/IDQ60701.94393.axf

JavaScript Object Notation format (JSON) in row-major order
http://www.bom.gov.au/fwo/IDQ60701/IDQ60701.94393.json